Airfield :
LOGIN :

Register | Disclaimer

   EN    FR    IT 

 










Legend :    VFR   Marginal VFR   IFR   Intensive IFR   Very Intensive IFR
Visi :
Ceiling :
>= 8 km
>= 3000ft
5 to 8 km
1000 to 3000 ft
1500m to 5 km
500 to 1000 ft
800 to 1500m
200 to 500 ft
< 800m
< 200 ft
Symbols :   Thunderstorms  Fog  Heavy snow  Heavy precipitations  Wind > 20 kt
SIGMETs :     Misc.  Thunderstorms  Icing  Turbulence  Mountain Waves  Volcanic Ashes







- Airport Elevation : 794 ft


LKCV - Čáslav Air Base

CURRENT METAR :
  • 251400Z 22012KT CAVOK 17/07 Q1004 NOSIG RMK BLU BLU

EXPIRED METARs :
  • 251300Z 22017KT CAVOK 17/06 Q1005 NOSIG RMK BLU BLU
  • 251200Z 23014KT CAVOK 16/06 Q1005 NOSIG

TAF TAF LKCV
Valid from the 25 at 12:00 until the 26 at 12:00 UTC


251100Z 2512/2612 21010KT CAVOK
PROB40
TEMPO 2512/2516 23012G22KT 8000 SHRA SCT035TCU BKN050
BECMG 2518/2521 33010KT 6000 RA BKN020 OVC045
TEMPO 2521/2608 4000 RA BKN015 OVC025
BECMG 2607/2609 02007KT
No reported NOTAMs for that airfield.



MET'MAP, your aeronautical weather chart ! - Copyright ORBIFLY December 2007 - Disclaimer

ORBIFLY MET'MAP TEAM :

Programming & Development : Alexandra Zaïnal
Concept & Development : Baudouin d'Aumeries
Co-Development & Prog : Marc-Olivier Méhu
Technical & hardware support : Manuel Goepfert

Contact : metmap@orbifly.com




SOURCES & CREDITS :

   NOAA